Time;durP1;ratioP1;P1;durP2;ratioP2;P2;SDS_P1;SDS_P2;PMS_P1;PMS_P2;Temp;Humidity;BMP_temperature;BMP_pressure;BME280_temperature;BME280_humidity;BME280_pressure;Samples;Min_cycle;Max_cycle;Signal;HPM_P1;HPM_P2
2021/04/22 00:00:25;;;;;;;17.50;6.95;;;;;;;6.23;100.00;101268.74;1813642;78;21048;-90
2021/04/22 00:02:52;;;;;;;15.80;6.97;;;;;;;6.22;100.00;101273.80;1813699;78;21100;-90
2021/04/22 00:05:29;;;;;;;16.82;7.00;;;;;;;6.20;100.00;101283.89;1813654;79;22013;-90
2021/04/22 00:07:56;;;;;;;16.82;7.95;;;;;;;6.20;100.00;101276.68;1773284;80;21227;-89
2021/04/22 00:10:27;;;;;;;22.02;8.50;;;;;;;6.15;100.00;101273.84;1773352;80;21144;-90
2021/04/22 00:12:54;;;;;;;20.90;8.30;;;;;;;6.13;100.00;101271.89;1717186;83;21222;-90
2021/04/22 00:15:21;;;;;;;17.87;8.13;;;;;;;6.07;100.00;101280.77;1715273;83;21183;-91
2021/04/22 00:17:52;;;;;;;19.85;8.05;;;;;;;6.06;100.00;101279.95;1715451;83;21242;-90
2021/04/22 00:20:19;;;;;;;19.60;8.23;;;;;;;6.08;100.00;101281.06;1715243;83;21206;-90
2021/04/22 00:22:46;;;;;;;22.70;7.33;;;;;;;6.09;100.00;101279.53;1715277;83;21136;-90
2021/04/22 00:25:13;;;;;;;22.05;8.58;;;;;;;6.14;100.00;101280.21;1715222;83;21108;-91
2021/04/22 00:27:39;;;;;;;17.10;7.72;;;;;;;6.20;100.00;101282.55;1715340;83;21624;-91
2021/04/22 00:30:10;;;;;;;24.12;8.33;;;;;;;6.21;100.00;101282.36;1715380;83;21255;-91
2021/04/22 00:32:37;;;;;;;18.62;7.80;;;;;;;6.17;100.00;101279.78;1715354;83;21152;-90
2021/04/22 00:35:05;;;;;;;20.37;8.33;;;;;;;6.08;100.00;101281.06;1715307;83;21152;-91
2021/04/22 00:37:31;;;;;;;16.45;7.62;;;;;;;6.03;100.00;101281.72;1715250;83;21250;-90
2021/04/22 00:39:57;;;;;;;21.07;8.33;;;;;;;6.03;100.00;101287.56;1715493;83;20985;-92
2021/04/22 00:42:23;;;;;;;21.60;7.70;;;;;;;5.99;100.00;101287.17;1715392;83;21202;-91
2021/04/22 00:44:50;;;;;;;21.77;8.78;;;;;;;5.98;100.00;101287.41;1715418;83;21505;-92
2021/04/22 00:47:18;;;;;;;17.70;7.67;;;;;;;5.96;100.00;101286.78;1715396;83;21239;-92
2021/04/22 00:49:45;;;;;;;17.15;7.45;;;;;;;5.94;100.00;101290.18;1715307;83;21191;-91
2021/04/22 00:52:12;;;;;;;23.62;9.05;;;;;;;5.92;100.00;101293.86;1715210;83;21096;-91
2021/04/22 00:54:41;;;;;;;20.02;8.78;;;;;;;5.86;100.00;101297.39;1715480;83;21234;-95
2021/04/22 00:57:08;;;;;;;17.62;8.05;;;;;;;5.85;100.00;101302.94;1715307;83;21608;-94
2021/04/22 00:59:35;;;;;;;19.60;8.48;;;;;;;5.80;100.00;101295.56;1715401;83;21186;-94
2021/04/22 01:02:13;;;;;;;23.12;8.58;;;;;;;5.74;100.00;101297.73;1715426;83;21208;-94
2021/04/22 01:04:38;;;;;;;20.20;8.18;;;;;;;5.76;100.00;101302.86;1664693;86;21778;-91
2021/04/22 01:07:06;;;;;;;20.02;8.45;;;;;;;5.78;100.00;101296.80;1664226;86;21208;-91
2021/04/22 01:09:32;;;;;;;19.87;7.75;;;;;;;5.76;100.00;101296.17;1673870;85;21628;-90
2021/04/22 01:12:00;;;;;;;19.25;7.92;;;;;;;5.77;100.00;101299.99;1688916;85;20989;-90
2021/04/22 01:14:26;;;;;;;21.85;8.00;;;;;;;5.73;100.00;101298.75;1682237;84;21180;-91
2021/04/22 01:16:52;;;;;;;22.80;8.60;;;;;;;5.74;100.00;101300.41;1682372;85;22678;-91
2021/04/22 01:19:18;;;;;;;19.23;7.53;;;;;;;5.70;100.00;101300.51;1682020;85;21600;-92
2021/04/22 01:21:44;;;;;;;19.85;7.85;;;;;;;5.71;100.00;101294.15;1682139;85;20950;-91
2021/04/22 01:24:10;;;;;;;22.35;8.95;;;;;;;5.71;100.00;101295.48;1659034;85;21093;-90
2021/04/22 01:26:36;;;;;;;24.40;8.88;;;;;;;5.67;100.00;101296.92;1682280;85;21208;-92
2021/04/22 01:29:05;;;;;;;20.20;8.45;;;;;;;5.71;100.00;101295.48;1682245;85;21498;-91
2021/04/22 01:31:32;;;;;;;22.35;9.00;;;;;;;5.68;100.00;101300.73;1682222;85;21304;-91
2021/04/22 01:34:05;;;;;;;25.05;9.25;;;;;;;5.67;100.00;101300.41;1682064;85;21223;-91
2021/04/22 01:36:37;;;;;;;21.20;9.13;;;;;;;5.71;100.00;101307.52;1625165;88;21689;-91
2021/04/22 01:39:07;;;;;;;23.53;9.40;;;;;;;5.77;100.00;101308.54;1625418;88;21757;-92
2021/04/22 01:41:33;;;;;;;28.98;9.50;;;;;;;5.82;100.00;101309.52;1625126;88;21635;-92
2021/04/22 01:44:00;;;;;;;22.45;8.73;;;;;;;5.83;100.00;101310.37;1625154;88;21406;-91
2021/04/22 01:46:26;;;;;;;21.60;8.83;;;;;;;5.88;100.00;101308.70;1624894;88;21174;-92
2021/04/22 01:48:52;;;;;;;22.50;8.80;;;;;;;5.88;100.00;101310.05;1625186;87;21265;-92
2021/04/22 01:51:20;;;;;;;24.67;9.60;;;;;;;5.80;100.00;101319.62;1625146;88;21662;-92
2021/04/22 01:53:47;;;;;;;21.90;9.00;;;;;;;5.74;100.00;101319.13;1625526;86;21194;-92
2021/04/22 01:56:14;;;;;;;20.57;8.78;;;;;;;5.72;100.00;101312.34;1653438;86;21223;-91
2021/04/22 01:58:40;;;;;;;24.67;9.83;;;;;;;5.74;100.00;101311.11;1653406;86;21169;-92
2021/04/22 02:01:06;;;;;;;24.50;9.33;;;;;;;5.68;100.00;101314.63;1683039;81;21243;-92
2021/04/22 02:03:33;;;;;;;23.15;9.75;;;;;;;5.67;100.00;101308.95;1710796;83;21172;-92
2021/04/22 02:06:05;;;;;;;22.42;9.43;;;;;;;5.74;100.00;101315.64;1710925;83;21146;-91
2021/04/22 02:08:32;;;;;;;21.15;9.55;;;;;;;5.67;100.00;101314.30;1710661;83;21239;-92
2021/04/22 02:10:59;;;;;;;23.27;9.73;;;;;;;5.64;100.00;101318.73;1711020;83;21139;-91
2021/04/22 02:13:27;;;;;;;23.87;9.75;;;;;;;5.65;100.00;101321.20;1722297;82;21137;-91
2021/04/22 02:15:54;;;;;;;24.45;10.10;;;;;;;5.65;100.00;101320.39;1737741;82;21133;-92
2021/04/22 02:18:20;;;;;;;23.20;9.83;;;;;;;5.61;100.00;101323.16;1737747;82;21259;-92
2021/04/22 02:20:48;;;;;;;24.70;10.30;;;;;;;5.64;100.00;101328.91;1737789;82;21584;-92
2021/04/22 02:23:17;;;;;;;25.27;10.10;;;;;;;5.64;100.00;101328.09;1737660;82;21172;-91
2021/04/22 02:25:44;;;;;;;24.82;10.05;;;;;;;5.62;100.00;101325.64;1737945;82;21112;-92
2021/04/22 02:28:11;;;;;;;25.12;10.93;;;;;;;5.86;100.00;101334.02;1737574;82;21267;-92
2021/04/22 02:30:41;;;;;;;25.32;9.43;;;;;;;5.83;100.00;101335.25;1737707;82;21224;-92
2021/04/22 02:33:11;;;;;;;22.20;9.93;;;;;;;5.82;100.00;101340.80;1744573;81;21235;-92
2021/04/22 02:35:41;;;;;;;27.22;10.53;;;;;;;5.70;100.00;101348.13;1813266;78;21568;-92
2021/04/22 02:38:10;;;;;;;27.27;10.50;;;;;;;5.69;100.00;101345.16;1819396;78;21148;-92
2021/04/22 02:40:38;;;;;;;22.85;9.73;;;;;;;5.86;100.00;101352.73;1819440;78;21152;-92
2021/04/22 02:43:09;;;;;;;22.87;9.28;;;;;;;5.79;100.00;101354.07;1819481;78;21126;-91
2021/04/22 02:45:40;;;;;;;26.80;9.83;;;;;;;5.66;100.00;101350.92;1819488;78;21914;-92
2021/04/22 02:48:07;;;;;;;26.20;10.15;;;;;;;5.62;100.00;101352.89;1819358;78;21742;-91
2021/04/22 02:50:36;;;;;;;29.45;10.35;;;;;;;5.60;100.00;101359.77;1819565;78;21541;-92
2021/04/22 02:53:05;;;;;;;31.77;11.68;;;;;;;5.69;100.00;101354.51;1819507;78;21131;-91
2021/04/22 02:55:32;;;;;;;23.62;9.78;;;;;;;5.71;100.00;101359.66;1790481;78;21128;-92
2021/04/22 02:57:58;;;;;;;32.05;11.35;;;;;;;5.66;100.00;101358.94;1819573;78;21184;-92
2021/04/22 03:00:25;;;;;;;25.32;10.82;;;;;;;5.68;100.00;101368.10;1819668;78;21569;-91
2021/04/22 03:02:51;;;;;;;29.02;11.90;;;;;;;5.70;100.00;101359.34;1819698;78;21117;-92
2021/04/22 03:05:18;;;;;;;30.15;11.53;;;;;;;5.76;100.00;101369.20;1819415;78;21125;-92
2021/04/22 03:07:45;;;;;;;34.78;11.73;;;;;;;5.92;100.00;101374.63;1819298;78;21120;-91
2021/04/22 03:10:16;;;;;;;37.20;13.40;;;;;;;5.94;100.00;101366.42;1819482;78;21210;-91
2021/04/22 03:12:42;;;;;;;37.90;12.55;;;;;;;6.00;100.00;101374.94;1815406;78;21588;-91
2021/04/22 03:15:09;;;;;;;37.33;12.93;;;;;;;6.17;100.00;101380.14;1813617;78;21157;-93
2021/04/22 03:17:36;;;;;;;45.88;14.33;;;;;;;6.32;100.00;101383.89;1813573;78;21125;-91
2021/04/22 03:20:05;;;;;;;50.43;15.13;;;;;;;6.41;100.00;101385.81;1813429;79;21120;-91
2021/04/22 03:22:33;;;;;;;49.27;15.03;;;;;;;6.53;100.00;101384.95;1813598;78;22045;-92
2021/04/22 03:25:04;;;;;;;41.77;14.87;;;;;;;6.72;100.00;101393.91;1813554;78;21180;-92
2021/04/22 03:27:30;;;;;;;35.78;12.90;;;;;;;6.91;100.00;101389.98;1813549;79;21149;-92
2021/04/22 03:29:58;;;;;;;28.30;11.18;;;;;;;7.17;100.00;101387.65;1813683;79;20938;-92
2021/04/22 03:32:26;;;;;;;31.68;11.43;;;;;;;7.08;100.00;101392.97;1813703;79;21042;-92
2021/04/22 03:34:52;;;;;;;28.30;11.25;;;;;;;7.26;100.00;101396.56;1813622;78;21927;-92
2021/04/22 03:37:19;;;;;;;26.65;11.20;;;;;;;7.59;100.00;101399.49;1813513;79;21633;-93
2021/04/22 03:39:45;;;;;;;24.43;10.13;;;;;;;7.69;100.00;101401.14;1813600;78;21120;-92
2021/04/22 03:42:11;;;;;;;21.82;9.78;;;;;;;8.03;100.00;101408.86;1813559;79;21124;-93
2021/04/22 03:44:37;;;;;;;22.80;9.55;;;;;;;8.47;100.00;101409.13;1808424;78;20954;-93
2021/04/22 03:47:03;;;;;;;24.77;10.70;;;;;;;9.59;100.00;101409.03;1813670;78;21090;-92
2021/04/22 03:49:29;;;;;;;28.55;11.78;;;;;;;10.25;100.00;101411.88;1813412;79;21220;-93
2021/04/22 03:51:55;;;;;;;26.35;11.55;;;;;;;10.88;100.00;101412.86;1813723;78;21156;-93
2021/04/22 03:54:21;;;;;;;30.65;12.07;;;;;;;11.14;100.00;101407.40;1813571;79;21552;-92
2021/04/22 03:56:47;;;;;;;25.02;11.35;;;;;;;11.56;100.00;101418.64;1813617;78;20950;-92
2021/04/22 03:59:13;;;;;;;24.85;11.15;;;;;;;12.33;100.00;101418.41;1813332;79;21319;-92
2021/04/22 04:01:39;;;;;;;18.70;9.98;;;;;;;13.17;100.00;101413.89;1813479;78;20923;-93
2021/04/22 04:04:05;;;;;;;21.50;10.48;;;;;;;14.25;100.00;101416.03;1813559;78;20982;-92
2021/04/22 04:06:31;;;;;;;19.42;9.20;;;;;;;15.10;100.00;101413.87;1813696;78;21144;-92
2021/04/22 04:08:58;;;;;;;22.13;9.43;;;;;;;16.02;100.00;101413.02;1813614;78;21641;-91
2021/04/22 04:11:24;;;;;;;21.12;9.33;;;;;;;16.69;100.00;101415.73;1813630;78;21154;-92
2021/04/22 04:13:51;;;;;;;24.55;9.13;;;;;;;16.35;100.00;101423.25;1813376;78;21062;-91
2021/04/22 04:16:17;;;;;;;21.65;10.10;;;;;;;15.69;100.00;101427.48;1813367;78;21092;-92
2021/04/22 04:18:43;;;;;;;17.70;9.25;;;;;;;15.83;100.00;101420.40;1813640;78;20899;-91
2021/04/22 04:21:08;;;;;;;18.85;10.00;;;;;;;16.50;100.00;101427.81;1813718;78;20931;-91
2021/04/22 04:23:34;;;;;;;20.45;9.15;;;;;;;17.49;100.00;101421.47;1813878;79;21572;-90
2021/04/22 04:26:00;;;;;;;20.17;9.85;;;;;;;18.40;100.00;101418.90;1777714;80;21025;-91
2021/04/22 04:28:26;;;;;;;19.25;8.90;;;;;;;19.06;100.00;101422.12;1778072;80;21061;-92
2021/04/22 04:30:52;;;;;;;20.02;9.43;;;;;;;20.24;86.12;101428.84;1777959;80;21521;-93
2021/04/22 04:33:18;;;;;;;21.27;9.18;;;;;;;20.27;71.19;101432.34;1751865;80;21703;-91
2021/04/22 04:35:44;;;;;;;17.62;8.93;;;;;;;20.76;79.19;101432.94;1778002;80;21285;-91
2021/04/22 04:38:10;;;;;;;17.62;10.10;;;;;;;21.39;80.18;101436.73;1777880;80;21132;-91
2021/04/22 04:40:36;;;;;;;16.00;9.23;;;;;;;22.50;66.79;101435.41;1777934;80;21061;-90
2021/04/22 04:43:03;;;;;;;16.82;9.05;;;;;;;22.51;61.16;101445.26;1777938;80;20942;-91
2021/04/22 04:45:29;;;;;;;18.67;9.08;;;;;;;23.19;55.46;101433.86;1778019;80;21144;-91
2021/04/22 04:47:55;;;;;;;17.90;10.60;;;;;;;23.88;56.28;101441.98;1777926;80;22345;-87
2021/04/22 04:50:21;;;;;;;21.10;11.10;;;;;;;23.74;53.57;101446.91;1791694;79;20946;-87
2021/04/22 04:52:48;;;;;;;18.42;10.23;;;;;;;25.20;47.13;101442.85;1813686;78;21104;-88
2021/04/22 04:55:15;;;;;;;19.23;11.65;;;;;;;24.86;49.67;101441.41;1782001;79;21573;-88
2021/04/22 04:57:43;;;;;;;22.17;11.60;;;;;;;24.82;46.73;101447.91;1813764;78;21178;-87
2021/04/22 05:00:11;;;;;;;22.70;11.83;;;;;;;25.65;45.61;101441.52;1813483;78;21157;-88
2021/04/22 05:02:37;;;;;;;19.37;11.43;;;;;;;25.96;45.45;101452.64;1813511;79;21133;-88
2021/04/22 05:05:05;;;;;;;20.23;11.63;;;;;;;26.04;44.49;101451.73;1813459;78;21066;-88
2021/04/22 05:07:31;;;;;;;19.25;11.00;;;;;;;26.31;43.23;101449.44;1808243;79;21100;-88
2021/04/22 05:09:57;;;;;;;16.93;10.78;;;;;;;25.49;39.74;101451.58;1813590;78;21712;-88
2021/04/22 05:12:24;;;;;;;15.88;9.73;;;;;;;26.65;42.73;101450.36;1813752;79;21213;-89
2021/04/22 05:14:50;;;;;;;15.98;9.85;;;;;;;27.48;40.80;101452.16;1817278;78;21493;-88
2021/04/22 05:17:18;;;;;;;16.30;9.38;;;;;;;27.70;39.01;101458.27;1816352;78;21557;-88
2021/04/22 05:19:45;;;;;;;21.82;10.20;;;;;;;28.43;37.57;101457.77;1819358;78;21160;-89
2021/04/22 05:22:11;;;;;;;17.75;10.45;;;;;;;28.82;36.94;101454.25;1819431;78;21597;-88
2021/04/22 05:24:37;;;;;;;18.60;10.78;;;;;;;28.80;36.01;101457.41;1819458;78;21644;-88
2021/04/22 05:27:04;;;;;;;15.50;10.00;;;;;;;28.64;36.15;101457.44;1819343;78;21116;-88
2021/04/22 05:29:30;;;;;;;20.95;10.72;;;;;;;29.52;33.13;101458.27;1819432;78;21148;-87
2021/04/22 05:31:56;;;;;;;14.75;9.80;;;;;;;28.62;34.50;101459.80;1819306;78;21033;-88
2021/04/22 05:34:22;;;;;;;17.42;9.63;;;;;;;28.62;34.50;101459.80;1819416;78;21019;-88
2021/04/22 05:36:48;;;;;;;15.78;9.33;;;;;;;28.50;36.08;101466.82;1819370;78;21269;-88
2021/04/22 05:39:14;;;;;;;15.48;9.65;;;;;;;29.55;35.56;101458.13;1819334;78;20941;-89
2021/04/22 05:41:40;;;;;;;13.70;9.25;;;;;;;30.01;34.08;101467.91;1789650;78;21192;-89
2021/04/22 05:44:07;;;;;;;14.28;9.38;;;;;;;31.07;30.62;101473.47;1819173;78;21164;-88
2021/04/22 05:46:33;;;;;;;14.68;10.08;;;;;;;30.75;31.62;101466.86;1819281;78;21121;-89
2021/04/22 05:48:59;;;;;;;16.70;10.23;;;;;;;30.40;32.19;101468.55;1819373;78;21996;-89
2021/04/22 05:51:25;;;;;;;20.72;11.25;;;;;;;30.33;32.63;101473.42;1819367;78;20926;-89
2021/04/22 05:53:50;;;;;;;19.15;12.82;;;;;;;30.55;32.78;101473.73;1819349;78;21144;-88
2021/04/22 05:56:16;;;;;;;23.65;13.38;;;;;;;31.23;30.32;101469.88;1819390;78;20883;-88
2021/04/22 05:58:42;;;;;;;18.73;12.47;;;;;;;31.05;31.46;101470.85;1819320;78;21026;-88
2021/04/22 06:01:08;;;;;;;23.45;13.38;;;;;;;31.47;30.17;101473.34;1819354;78;21256;-88
2021/04/22 06:03:34;;;;;;;22.95;12.85;;;;;;;32.10;30.17;101470.19;1819071;78;20958;-88
2021/04/22 06:06:00;;;;;;;17.67;12.00;;;;;;;32.40;28.89;101473.39;1819451;78;21009;-89
2021/04/22 06:08:26;;;;;;;15.78;10.58;;;;;;;32.09;29.52;101470.78;1819424;78;20950;-89
2021/04/22 06:10:52;;;;;;;15.88;10.90;;;;;;;32.37;29.43;101472.17;1814459;78;22422;-88
2021/04/22 06:13:18;;;;;;;17.40;10.05;;;;;;;32.02;30.15;101468.52;1819220;78;21228;-89
2021/04/22 06:15:44;;;;;;;17.12;10.38;;;;;;;33.45;27.17;101470.73;1813960;78;21684;-89
2021/04/22 06:18:10;;;;;;;13.65;9.90;;;;;;;32.53;28.32;101477.47;1813600;79;20963;-88
2021/04/22 06:20:36;;;;;;;13.50;9.98;;;;;;;32.74;29.33;101481.81;1813592;78;21608;-88
2021/04/22 06:23:02;;;;;;;15.00;8.85;;;;;;;33.20;28.60;101486.02;1813842;78;21132;-88
2021/04/22 06:25:30;;;;;;;14.05;9.00;;;;;;;34.22;26.55;101488.61;1813573;79;21160;-88
2021/04/22 06:27:58;;;;;;;14.70;8.03;;;;;;;34.52;25.46;101481.95;1813424;79;21160;-88
2021/04/22 06:30:26;;;;;;;12.25;8.43;;;;;;;34.19;26.78;101483.82;1813672;78;21137;-88
2021/04/22 06:32:55;;;;;;;16.85;8.93;;;;;;;34.88;26.06;101488.08;1813613;79;21282;-88
2021/04/22 06:35:22;;;;;;;13.95;9.08;;;;;;;34.80;26.16;101489.52;1813632;79;21125;-88
2021/04/22 06:37:48;;;;;;;12.20;8.95;;;;;;;34.99;24.80;101495.84;1813588;78;21060;-89
2021/04/22 06:40:19;;;;;;;11.60;7.67;;;;;;;34.20;26.30;101499.40;1813409;78;21562;-88
2021/04/22 06:42:46;;;;;;;11.27;8.47;;;;;;;33.33;28.41;101501.23;1813833;79;21558;-88
2021/04/22 06:45:15;;;;;;;12.18;7.80;;;;;;;33.28;26.77;101505.01;1813728;78;21614;-89
2021/04/22 06:47:42;;;;;;;12.95;8.13;;;;;;;34.50;25.38;101505.95;1813345;78;21152;-88
2021/04/22 06:50:13;;;;;;;13.90;7.58;;;;;;;34.09;25.60;101508.61;1813581;78;21206;-88
2021/04/22 06:52:40;;;;;;;10.70;8.50;;;;;;;34.12;25.50;101504.19;1812252;78;21563;-91
2021/04/22 06:55:14;;;;;;;15.88;9.18;;;;;;;34.24;25.32;101516.98;1808179;78;21211;-91
2021/04/22 06:57:40;;;;;;;11.73;7.72;;;;;;;33.84;25.64;101513.35;1812941;79;21621;-91
2021/04/22 07:00:10;;;;;;;13.32;7.33;;;;;;;32.60;27.97;101521.41;1813669;78;21060;-91
2021/04/22 07:02:37;;;;;;;10.48;7.45;;;;;;;33.25;27.74;101519.17;1773152;80;21979;-91
2021/04/22 07:05:06;;;;;;;11.28;8.18;;;;;;;34.05;25.44;101520.98;1773089;80;21619;-90
2021/04/22 07:07:32;;;;;;;13.18;9.13;;;;;;;34.33;24.93;101516.79;1773151;80;21140;-91
2021/04/22 07:09:59;;;;;;;18.30;11.18;;;;;;;34.46;25.11;101516.38;1773203;80;21005;-91
2021/04/22 07:12:25;;;;;;;16.90;10.13;;;;;;;33.70;26.89;101522.52;1773303;80;21292;-90
2021/04/22 07:14:52;;;;;;;12.80;9.00;;;;;;;34.67;25.27;101524.75;1775519;80;21328;-90
2021/04/22 07:17:18;;;;;;;12.13;8.40;;;;;;;34.72;24.47;101526.35;1778543;80;21229;-90
2021/04/22 07:19:44;;;;;;;13.25;8.70;;;;;;;32.24;26.72;101530.84;1778534;80;21637;-89
2021/04/22 07:22:10;;;;;;;14.93;8.93;;;;;;;32.54;25.88;101535.72;1778691;80;20931;-89
2021/04/22 07:24:39;;;;;;;15.03;9.33;;;;;;;34.17;24.53;101525.38;1778698;80;21204;-90
2021/04/22 07:27:07;;;;;;;16.60;9.63;;;;;;;32.15;28.01;101529.81;1778579;80;21120;-90
2021/04/22 07:29:33;;;;;;;15.88;9.58;;;;;;;32.77;26.53;101526.30;1775725;80;21220;-90
2021/04/22 07:31:59;;;;;;;19.07;12.10;;;;;;;33.64;26.12;101524.89;1778627;80;21002;-89
2021/04/22 07:34:25;;;;;;;18.32;10.95;;;;;;;35.06;24.42;101528.67;1778636;80;21183;-88
2021/04/22 07:36:51;;;;;;;19.12;11.48;;;;;;;33.43;25.97;101532.59;1778680;80;21495;-89
2021/04/22 07:39:17;;;;;;;21.15;11.43;;;;;;;31.60;27.89;101549.14;1761540;80;21149;-89
2021/04/22 07:41:43;;;;;;;17.32;10.98;;;;;;;33.64;26.79;101533.88;1778568;80;21072;-90
2021/04/22 07:44:09;;;;;;;15.70;9.68;;;;;;;32.66;27.74;101525.42;1778814;80;21126;-92
2021/04/22 07:46:35;;;;;;;20.65;9.98;;;;;;;34.72;23.57;101531.95;1778573;80;21018;-89
2021/04/22 07:49:01;;;;;;;15.38;9.18;;;;;;;33.78;24.56;101536.72;1778618;80;21035;-89
2021/04/22 07:51:27;;;;;;;20.70;8.53;;;;;;;34.82;23.20;101526.30;1778678;80;21176;-89
2021/04/22 07:53:53;;;;;;;14.55;8.98;;;;;;;33.93;24.05;101537.53;1778860;80;21076;-89
2021/04/22 07:56:19;;;;;;;10.63;7.58;;;;;;;33.34;24.96;101533.57;1778699;80;20950;-89
2021/04/22 07:58:45;;;;;;;12.43;7.83;;;;;;;32.98;26.41;101534.81;1783273;78;21164;-89
2021/04/22 08:01:11;;;;;;;11.53;7.25;;;;;;;32.43;27.38;101533.41;1789537;78;20942;-89
2021/04/22 08:03:37;;;;;;;14.40;7.62;;;;;;;34.30;24.85;101528.78;1819501;78;22251;-91
2021/04/22 08:06:03;;;;;;;11.30;7.60;;;;;;;35.07;22.97;101531.08;1819612;78;20911;-87
2021/04/22 08:08:31;;;;;;;10.38;7.65;;;;;;;34.80;22.64;101530.13;1819618;78;21040;-87
2021/04/22 08:10:57;;;;;;;11.15;7.50;;;;;;;34.81;22.60;101534.52;1819498;78;21144;-87
2021/04/22 08:13:24;;;;;;;13.05;8.43;;;;;;;34.69;23.14;101532.16;1819426;78;21589;-87
2021/04/22 08:15:53;;;;;;;12.58;8.23;;;;;;;34.63;23.11;101531.58;1815288;78;21145;-87
2021/04/22 08:18:22;;;;;;;14.23;8.85;;;;;;;33.77;23.82;101531.50;1813555;78;21160;-86
2021/04/22 08:20:49;;;;;;;9.83;6.37;;;;;;;33.52;23.78;101530.86;1813774;79;21140;-85
2021/04/22 08:23:15;;;;;;;9.98;7.00;;;;;;;32.62;25.70;101530.99;1813665;78;21096;-86
2021/04/22 08:25:49;;;;;;;10.63;6.53;;;;;;;33.28;23.47;101531.55;1813850;78;21106;-86
2021/04/22 08:28:18;;;;;;;12.28;7.17;;;;;;;33.00;24.77;101531.05;1813745;78;21159;-85
2021/04/22 08:30:53;;;;;;;11.03;7.47;;;;;;;33.45;23.63;101523.23;1813663;78;21180;-86
2021/04/22 08:33:22;;;;;;;12.35;7.40;;;;;;;31.89;25.66;101529.34;1724861;83;21096;-88
2021/04/22 08:35:49;;;;;;;9.65;6.35;;;;;;;34.10;22.93;101523.39;1727143;83;21183;-86
2021/04/22 08:38:16;;;;;;;8.65;6.12;;;;;;;32.13;25.79;101524.60;1726955;83;21219;-86
2021/04/22 08:40:44;;;;;;;14.78;7.15;;;;;;;32.62;25.67;101532.39;1726770;83;21196;-87
2021/04/22 08:43:12;;;;;;;8.35;4.97;;;;;;;32.95;24.99;101525.80;1726979;83;21223;-86
2021/04/22 08:45:38;;;;;;;7.20;5.15;;;;;;;31.61;26.26;101527.05;1727132;83;21328;-88
2021/04/22 08:48:06;;;;;;;11.65;5.92;;;;;;;33.73;23.89;101530.11;1703056;83;21131;-87
2021/04/22 08:50:35;;;;;;;10.68;5.35;;;;;;;33.75;24.24;101526.92;1727273;83;21187;-87
2021/04/22 08:53:06;;;;;;;10.48;4.30;;;;;;;33.90;24.26;101525.14;1727214;83;21593;-86
2021/04/22 08:55:35;;;;;;;10.55;4.50;;;;;;;33.76;24.22;101527.91;1726960;83;21175;-86
2021/04/22 08:58:04;;;;;;;14.63;4.92;;;;;;;35.11;20.74;101525.45;1727179;83;21204;-86
2021/04/22 09:00:38;;;;;;;18.32;5.80;;;;;;;32.63;24.12;101524.81;1727206;83;21202;-86
2021/04/22 09:03:04;;;;;;;11.73;4.72;;;;;;;34.63;21.55;101516.97;1727225;83;21218;-85
2021/04/22 09:05:31;;;;;;;9.90;4.97;;;;;;;34.38;21.17;101520.56;1727249;83;21187;-86
2021/04/22 09:07:57;;;;;;;14.58;4.92;;;;;;;33.29;22.27;101523.36;1722953;83;21599;-86
2021/04/22 09:10:25;;;;;;;19.30;5.17;;;;;;;32.04;24.75;101524.72;1757376;79;21593;-86
2021/04/22 09:13:01;;;;;;;14.30;5.75;;;;;;;33.28;22.60;101522.57;1813596;79;21136;-86
2021/04/22 09:15:29;;;;;;;12.73;5.00;;;;;;;34.16;21.26;101516.20;1773133;80;21140;-86
2021/04/22 09:17:59;;;;;;;8.40;4.42;;;;;;;31.87;24.01;101514.97;1773283;80;21177;-87
2021/04/22 09:20:33;;;;;;;11.73;5.10;;;;;;;32.54;22.77;101516.78;1773153;80;21192;-86
2021/04/22 09:23:00;;;;;;;18.92;5.95;;;;;;;32.05;23.51;101508.98;1773167;80;21200;-85
2021/04/22 09:25:27;;;;;;;18.07;4.78;;;;;;;32.68;23.31;101511.86;1773309;80;21225;-86
2021/04/22 09:28:05;;;;;;;13.78;4.58;;;;;;;31.73;24.76;101513.43;1773274;80;21227;-86
2021/04/22 09:30:40;;;;;;;8.10;5.10;;;;;;;32.24;25.03;101505.73;1773314;80;21230;-86
2021/04/22 09:33:10;;;;;;;9.60;4.42;;;;;;;33.40;23.40;101511.63;1719115;83;21164;-86
2021/04/22 09:35:36;;;;;;;7.75;4.55;;;;;;;32.16;25.17;101509.69;1715800;83;21160;-87
2021/04/22 09:38:02;;;;;;;9.10;4.65;;;;;;;32.32;24.20;101502.62;1719494;83;20969;-87
2021/04/22 09:40:35;;;;;;;7.58;4.50;;;;;;;31.71;25.23;101513.00;1719565;83;20986;-87
2021/04/22 09:43:06;;;;;;;12.18;4.87;;;;;;;32.07;23.69;101511.41;1719290;83;21156;-86
2021/04/22 09:45:34;;;;;;;8.70;4.90;;;;;;;30.51;26.07;101507.66;1719294;83;22558;-86
2021/04/22 09:48:00;;;;;;;10.00;4.58;;;;;;;30.55;26.87;101510.70;1719388;83;21199;-86
2021/04/22 09:50:29;;;;;;;8.33;4.37;;;;;;;30.68;25.95;101508.52;1715278;83;21073;-86
2021/04/22 09:52:59;;;;;;;11.78;4.70;;;;;;;29.30;28.51;101504.28;1694068;83;21140;-86
2021/04/22 09:55:31;;;;;;;10.88;4.50;;;;;;;29.03;27.31;101505.28;1715478;83;21800;-86
2021/04/22 09:57:57;;;;;;;11.73;4.33;;;;;;;28.75;27.54;101504.27;1696235;83;21195;-86
2021/04/22 10:00:31;;;;;;;13.70;4.42;;;;;;;27.61;29.52;101509.66;1717646;82;21190;-87
2021/04/22 10:03:01;;;;;;;6.65;3.90;;;;;;;27.87;28.71;101503.67;1666295;84;21222;-87
2021/04/22 10:05:31;;;;;;;9.63;3.95;;;;;;;27.60;28.91;101498.37;1668233;86;21167;-86
2021/04/22 10:08:10;;;;;;;6.75;4.10;;;;;;;26.81;30.62;101509.89;1668342;86;21170;-86
2021/04/22 10:10:41;;;;;;;6.80;4.33;;;;;;;27.55;28.74;101502.19;1589517;90;21146;-87
2021/04/22 10:13:11;;;;;;;6.75;3.70;;;;;;;26.69;29.58;101504.38;1570600;90;21207;-86
2021/04/22 10:15:40;;;;;;;7.87;4.42;;;;;;;26.23;30.75;101509.98;1544658;92;21704;-90
2021/04/22 10:18:08;;;;;;;8.58;3.92;;;;;;;26.00;30.78;101506.04;1522472;92;21267;-87
2021/04/22 10:20:38;;;;;;;10.25;4.15;;;;;;;25.28;31.37;101503.48;1544768;92;21294;-87
2021/04/22 10:23:07;;;;;;;10.72;4.70;;;;;;;25.14;32.17;101502.36;1544397;92;21673;-86
2021/04/22 10:25:39;;;;;;;7.97;4.58;;;;;;;24.82;33.80;101498.92;1544493;92;21180;-87
2021/04/22 10:28:12;;;;;;;7.70;4.78;;;;;;;25.00;33.11;101490.78;1544628;92;21203;-87
2021/04/22 10:30:43;;;;;;;10.15;5.42;;;;;;;24.74;34.01;101493.72;1561555;90;21258;-87
2021/04/22 10:33:09;;;;;;;11.00;5.10;;;;;;;24.60;33.89;101498.66;1565812;91;21207;-86
2021/04/22 10:35:39;;;;;;;9.53;5.10;;;;;;;23.82;35.74;101507.99;1565672;91;21172;-87
2021/04/22 10:38:06;;;;;;;11.12;5.20;;;;;;;23.69;37.53;101503.47;1565677;91;21210;-86
2021/04/22 10:40:39;;;;;;;11.33;5.28;;;;;;;24.25;35.83;101503.73;1565823;91;21178;-87
2021/04/22 10:43:06;;;;;;;;;;;;;;;23.91;35.98;101496.39;1568142;91;21267;-86
2021/04/22 10:45:35;;;;;;;15.35;6.15;;;;;;;23.67;36.07;101498.28;1565787;91;21832;-87
2021/04/22 10:48:01;;;;;;;11.43;6.25;;;;;;;23.68;36.54;101495.79;1565493;91;21206;-87
2021/04/22 10:50:40;;;;;;;11.55;5.00;;;;;;;23.15;38.58;101496.12;1565866;91;21668;-86
2021/04/22 10:53:10;;;;;;;8.83;4.50;;;;;;;23.20;37.88;101494.03;1597196;87;21178;-87
2021/04/22 10:55:40;;;;;;;8.53;4.15;;;;;;;23.33;37.52;101494.45;1624761;88;21106;-86
2021/04/22 10:58:23;;;;;;;7.47;3.92;;;;;;;23.24;36.48;101492.84;1617304;88;21180;-86
2021/04/22 11:00:57;;;;;;;9.60;4.47;;;;;;;22.77;36.74;101492.03;1565629;90;21816;-85
2021/04/22 11:03:39;;;;;;;14.30;6.17;;;;;;;22.72;36.91;101494.12;1572393;89;21253;-86
2021/04/22 11:06:21;;;;;;;9.57;4.90;;;;;;;22.22;38.13;101496.62;1542026;91;21711;-87
2021/04/22 11:08:50;;;;;;;9.28;4.25;;;;;;;22.21;39.03;101490.89;1583997;86;21632;-86
2021/04/22 11:11:31;;;;;;;9.08;4.72;;;;;;;22.56;36.63;101476.71;1652049;86;21215;-92
2021/04/22 11:14:12;;;;;;;10.98;4.20;;;;;;;22.48;36.99;101477.48;1651915;86;21163;-92
2021/04/22 11:16:41;;;;;;;11.38;4.50;;;;;;;22.56;36.55;101479.45;1652071;84;21157;-93
2021/04/22 11:19:19;;;;;;;10.03;4.42;;;;;;;21.72;37.76;101476.22;1683537;84;21184;-91